Decoded Metar for YTEF (TELFER AIRPORT in _UNIDENTIFIED) (IATA:N/A) | Meteo·Mobile Aviation Weather
aviador You're here:

YTEF Decoded Metar

TELFER AIRPORT in _UNIDENTIFIED
Report Time2018-12-11 12:00:00
UTC Time2018-12-11 12:20:34
Flight Rules vfr VFR
Wind320° at 07 kt
W.Decomp.*RWY 30: 6.7 kt HW 2.2 kt RCW
W.Rank320° ranks 13
Current wind is below 320° avg. (7.4)
Visibility9999 m
Phenomena:N/A
Clouds:N/A
Expected CloudBase > 9,600 ft AGL from Temp-Dew spread
CeilingNone
Temp38°C (ISA +25)
Dew Point14°C (24% RH)
Heat Index37.6°C
AAT36.7°C
QNH1005 hPa
Density Alt4,259 ft
Elevation971 ft
Report Wrong Elevation
Raw Report
YTEF 111200Z AUTO 32007KT 9999 // NCD 38/14 Q1005=

Extra information for YTEF:More info

Metar Taf Metar & Taf Last 4 Metars F.Rules Stats Wind Profile Meteogram Temp Stats Airport Information Weather charts Add Link Nearby VenuesMetar ALERT Operation Metar Decoded Social comments